sensor_id;sensor_type;location;lat;lon;timestamp;temperature;humidity
6788;DHT22;3431;47.966;10.268;2023-07-13T00:00:07;17.30;99.90
6788;DHT22;3431;47.966;10.268;2023-07-13T00:00:34;17.30;99.90
6788;DHT22;3431;47.966;10.268;2023-07-13T00:00:57;17.30;99.90
6788;DHT22;3431;47.966;10.268;2023-07-13T00:01:18;17.30;99.90
6788;DHT22;3431;47.966;10.268;2023-07-13T00:01:40;17.30;99.90
6788;DHT22;3431;47.966;10.268;2023-07-13T00:02:04;17.30;99.90
6788;DHT22;3431;47.966;10.268;2023-07-13T00:02:26;17.30;99.90
6788;DHT22;3431;47.966;10.268;2023-07-13T00:02:48;17.30;99.90
6788;DHT22;3431;47.966;10.268;2023-07-13T00:03:09;17.30;99.90
6788;DHT22;3431;47.966;10.268;2023-07-13T00:03:34;17.30;99.90
6788;DHT22;3431;47.966;10.268;2023-07-13T00:03:57;17.30;99.90
6788;DHT22;3431;47.966;10.268;2023-07-13T00:04:20;17.30;99.90
6788;DHT22;3431;47.966;10.268;2023-07-13T00:04:42;17.30;99.90
6788;DHT22;3431;47.966;10.268;2023-07-13T00:05:04;17.30;99.90
6788;DHT22;3431;47.966;10.268;2023-07-13T00:06:07;17.30;99.90
6788;DHT22;3431;47.966;10.268;2023-07-13T00:06:53;17.30;99.90
6788;DHT22;3431;47.966;10.268;2023-07-13T00:07:15;17.30;99.90
6788;DHT22;3431;47.966;10.268;2023-07-13T00:07:41;17.30;99.90
6788;DHT22;3431;47.966;10.268;2023-07-13T00:08:02;17.30;99.90
6788;DHT22;3431;47.966;10.268;2023-07-13T00:08:24;17.30;99.90
6788;DHT22;3431;47.966;10.268;2023-07-13T00:08:46;17.30;99.90
6788;DHT22;3431;47.966;10.268;2023-07-13T00:09:08;17.30;99.90
6788;DHT22;3431;47.966;10.268;2023-07-13T00:09:31;17.20;99.90
6788;DHT22;3431;47.966;10.268;2023-07-13T00:09:53;17.30;99.90
6788;DHT22;3431;47.966;10.268;2023-07-13T00:10:15;17.20;99.90
6788;DHT22;3431;47.966;10.268;2023-07-13T00:10:39;17.30;99.90
6788;DHT22;3431;47.966;10.268;2023-07-13T00:11:01;17.30;99.90
6788;DHT22;3431;47.966;10.268;2023-07-13T00:11:23;17.30;99.90
6788;DHT22;3431;47.966;10.268;2023-07-13T00:11:45;17.20;99.90
6788;DHT22;3431;47.966;10.268;2023-07-13T00:12:23;17.30;99.90
6788;DHT22;3431;47.966;10.268;2023-07-13T00:12:45;17.20;99.90
6788;DHT22;3431;47.966;10.268;2023-07-13T00:13:31;17.30;99.90
6788;DHT22;3431;47.966;10.268;2023-07-13T00:13:54;17.20;99.90
6788;DHT22;3431;47.966;10.268;2023-07-13T00:14:41;17.20;99.90
6788;DHT22;3431;47.966;10.268;2023-07-13T00:15:27;17.30;99.90
6788;DHT22;3431;47.966;10.268;2023-07-13T00:15:51;17.20;99.90
6788;DHT22;3431;47.966;10.268;2023-07-13T00:16:15;17.30;99.90
6788;DHT22;3431;47.966;10.268;2023-07-13T00:16:38;17.30;99.90
6788;DHT22;3431;47.966;10.268;2023-07-13T00:17:00;17.30;99.90
6788;DHT22;3431;47.966;10.268;2023-07-13T00:17:22;17.30;99.90
6788;DHT22;3431;47.966;10.268;2023-07-13T00:17:54;17.30;99.90
6788;DHT22;3431;47.966;10.268;2023-07-13T00:18:16;17.30;99.90
6788;DHT22;3431;47.966;10.268;2023-07-13T00:18:38;17.30;99.90
6788;DHT22;3431;47.966;10.268;2023-07-13T00:18:59;17.30;99.90
6788;DHT22;3431;47.966;10.268;2023-07-13T00:19:31;17.40;99.90
6788;DHT22;3431;47.966;10.268;2023-07-13T00:19:53;17.40;99.90
6788;DHT22;3431;47.966;10.268;2023-07-13T00:20:24;17.40;99.90
6788;DHT22;3431;47.966;10.268;2023-07-13T00:20:47;17.50;99.90
6788;DHT22;3431;47.966;10.268;2023-07-13T00:21:09;17.50;99.90
6788;DHT22;3431;47.966;10.268;2023-07-13T00:21:31;17.50;99.90
6788;DHT22;3431;47.966;10.268;2023-07-13T00:21:52;17.50;99.90
6788;DHT22;3431;47.966;10.268;2023-07-13T00:22:31;17.50;99.90
6788;DHT22;3431;47.966;10.268;2023-07-13T00:22:53;17.40;99.90
6788;DHT22;3431;47.966;10.268;2023-07-13T00:23:15;17.40;99.90
6788;DHT22;3431;47.966;10.268;2023-07-13T00:23:40;17.40;99.90
6788;DHT22;3431;47.966;10.268;2023-07-13T00:24:02;17.40;99.90
6788;DHT22;3431;47.966;10.268;2023-07-13T00:24:25;17.40;99.90
6788;DHT22;3431;47.966;10.268;2023-07-13T00:24:48;17.40;99.90
6788;DHT22;3431;47.966;10.268;2023-07-13T00:25:11;17.40;99.90
6788;DHT22;3431;47.966;10.268;2023-07-13T00:25:32;17.40;99.90
6788;DHT22;3431;47.966;10.268;2023-07-13T00:27:58;17.40;99.90
6788;DHT22;3431;47.966;10.268;2023-07-13T00:28:21;17.30;99.90
6788;DHT22;3431;47.966;10.268;2023-07-13T00:28:43;17.30;99.90
6788;DHT22;3431;47.966;10.268;2023-07-13T00:29:04;17.30;99.90
6788;DHT22;3431;47.966;10.268;2023-07-13T00:29:29;17.30;99.90
6788;DHT22;3431;47.966;10.268;2023-07-13T00:31:10;17.30;99.90
6788;DHT22;3431;47.966;10.268;2023-07-13T00:31:34;17.20;99.90
6788;DHT22;3431;47.966;10.268;2023-07-13T00:31:56;17.20;99.90
6788;DHT22;3431;47.966;10.268;2023-07-13T00:32:19;17.20;99.90
6788;DHT22;3431;47.966;10.268;2023-07-13T00:32:40;17.20;99.90
6788;DHT22;3431;47.966;10.268;2023-07-13T00:33:03;17.20;99.90
6788;DHT22;3431;47.966;10.268;2023-07-13T00:33:25;17.20;99.90
6788;DHT22;3431;47.966;10.268;2023-07-13T00:33:46;17.20;99.90
6788;DHT22;3431;47.966;10.268;2023-07-13T00:34:09;17.20;99.90
6788;DHT22;3431;47.966;10.268;2023-07-13T00:34:31;17.20;99.90
6788;DHT22;3431;47.966;10.268;2023-07-13T00:34:53;17.20;99.90
6788;DHT22;3431;47.966;10.268;2023-07-13T00:35:15;17.20;99.90
6788;DHT22;3431;47.966;10.268;2023-07-13T00:35:37;17.20;99.90
6788;DHT22;3431;47.966;10.268;2023-07-13T00:36:00;17.20;99.90
6788;DHT22;3431;47.966;10.268;2023-07-13T00:36:22;17.20;99.90
6788;DHT22;3431;47.966;10.268;2023-07-13T00:36:45;17.10;99.90
6788;DHT22;3431;47.966;10.268;2023-07-13T00:37:07;17.10;99.90
6788;DHT22;3431;47.966;10.268;2023-07-13T00:37:29;17.10;99.90
6788;DHT22;3431;47.966;10.268;2023-07-13T00:38:17;17.10;99.90
6788;DHT22;3431;47.966;10.268;2023-07-13T00:38:40;17.10;99.90
6788;DHT22;3431;47.966;10.268;2023-07-13T00:39:03;17.20;99.90
6788;DHT22;3431;47.966;10.268;2023-07-13T00:39:27;17.20;99.90
6788;DHT22;3431;47.966;10.268;2023-07-13T00:39:49;17.20;99.90
6788;DHT22;3431;47.966;10.268;2023-07-13T00:40:12;17.20;99.90
6788;DHT22;3431;47.966;10.268;2023-07-13T00:40:35;17.20;99.90
6788;DHT22;3431;47.966;10.268;2023-07-13T00:40:57;17.20;99.90
6788;DHT22;3431;47.966;10.268;2023-07-13T00:41:19;17.20;99.90
6788;DHT22;3431;47.966;10.268;2023-07-13T00:41:40;17.20;99.90
6788;DHT22;3431;47.966;10.268;2023-07-13T00:42:03;17.20;99.90
6788;DHT22;3431;47.966;10.268;2023-07-13T00:42:26;17.20;99.90
6788;DHT22;3431;47.966;10.268;2023-07-13T00:42:48;17.20;99.90
6788;DHT22;3431;47.966;10.268;2023-07-13T00:43:13;17.10;99.90
6788;DHT22;3431;47.966;10.268;2023-07-13T00:43:36;17.10;99.90
6788;DHT22;3431;47.966;10.268;2023-07-13T00:43:58;17.10;99.90
6788;DHT22;3431;47.966;10.268;2023-07-13T00:44:21;17.10;99.90
6788;DHT22;3431;47.966;10.268;2023-07-13T00:45:00;17.10;99.90
6788;DHT22;3431;47.966;10.268;2023-07-13T00:46:25;17.10;99.90
6788;DHT22;3431;47.966;10.268;2023-07-13T00:46:47;17.10;99.90
6788;DHT22;3431;47.966;10.268;2023-07-13T00:47:09;17.10;99.90
6788;DHT22;3431;47.966;10.268;2023-07-13T00:47:56;17.10;99.90
6788;DHT22;3431;47.966;10.268;2023-07-13T00:48:22;17.10;99.90
6788;DHT22;3431;47.966;10.268;2023-07-13T00:48:47;17.10;99.90
6788;DHT22;3431;47.966;10.268;2023-07-13T00:49:13;17.10;99.90
6788;DHT22;3431;47.966;10.268;2023-07-13T00:49:37;17.00;99.90
6788;DHT22;3431;47.966;10.268;2023-07-13T00:50:00;17.00;99.90
6788;DHT22;3431;47.966;10.268;2023-07-13T00:50:49;17.00;99.90
6788;DHT22;3431;47.966;10.268;2023-07-13T00:51:12;17.00;99.90
6788;DHT22;3431;47.966;10.268;2023-07-13T00:51:39;17.00;99.90
6788;DHT22;3431;47.966;10.268;2023-07-13T00:52:06;17.00;99.90
6788;DHT22;3431;47.966;10.268;2023-07-13T00:52:28;17.00;99.90
6788;DHT22;3431;47.966;10.268;2023-07-13T00:52:53;17.00;99.90
6788;DHT22;3431;47.966;10.268;2023-07-13T00:53:16;17.00;99.90
6788;DHT22;3431;47.966;10.268;2023-07-13T00:53:39;17.00;99.90
6788;DHT22;3431;47.966;10.268;2023-07-13T00:54:05;17.00;99.90
6788;DHT22;3431;47.966;10.268;2023-07-13T00:54:31;16.90;99.90
6788;DHT22;3431;47.966;10.268;2023-07-13T00:54:54;16.90;99.90
6788;DHT22;3431;47.966;10.268;2023-07-13T00:55:17;16.90;99.90
6788;DHT22;3431;47.966;10.268;2023-07-13T00:55:40;17.00;99.90
6788;DHT22;3431;47.966;10.268;2023-07-13T00:56:03;16.90;99.90
6788;DHT22;3431;47.966;10.268;2023-07-13T00:56:25;16.90;99.90
6788;DHT22;3431;47.966;10.268;2023-07-13T00:56:49;16.90;99.90
6788;DHT22;3431;47.966;10.268;2023-07-13T00:57:29;16.90;99.90
6788;DHT22;3431;47.966;10.268;2023-07-13T00:57:53;16.90;99.90
6788;DHT22;3431;47.966;10.268;2023-07-13T00:58:15;16.90;99.90
6788;DHT22;3431;47.966;10.268;2023-07-13T00:58:37;16.90;99.90
6788;DHT22;3431;47.966;10.268;2023-07-13T00:58:59;16.90;99.90
6788;DHT22;3431;47.966;10.268;2023-07-13T00:59:22;16.90;99.90
6788;DHT22;3431;47.966;10.268;2023-07-13T01:00:39;16.90;99.90
6788;DHT22;3431;47.966;10.268;2023-07-13T01:03:09;16.90;99.90
6788;DHT22;3431;47.966;10.268;2023-07-13T01:03:32;16.90;99.90
6788;DHT22;3431;47.966;10.268;2023-07-13T01:03:55;16.90;99.90
6788;DHT22;3431;47.966;10.268;2023-07-13T01:04:18;16.90;99.90
6788;DHT22;3431;47.966;10.268;2023-07-13T01:04:40;16.90;99.90
6788;DHT22;3431;47.966;10.268;2023-07-13T01:05:09;16.90;99.90
6788;DHT22;3431;47.966;10.268;2023-07-13T01:05:33;16.70;99.90
6788;DHT22;3431;47.966;10.268;2023-07-13T01:05:55;16.80;99.90
6788;DHT22;3431;47.966;10.268;2023-07-13T01:06:17;16.80;99.90
6788;DHT22;3431;47.966;10.268;2023-07-13T01:06:40;16.80;99.90
6788;DHT22;3431;47.966;10.268;2023-07-13T01:07:02;16.80;99.90
6788;DHT22;3431;47.966;10.268;2023-07-13T01:07:25;16.80;99.90
6788;DHT22;3431;47.966;10.268;2023-07-13T01:07:48;16.80;99.90
6788;DHT22;3431;47.966;10.268;2023-07-13T01:08:11;16.80;99.90
6788;DHT22;3431;47.966;10.268;2023-07-13T01:08:32;16.80;99.90
6788;DHT22;3431;47.966;10.268;2023-07-13T01:08:56;16.80;99.90
6788;DHT22;3431;47.966;10.268;2023-07-13T01:09:20;16.80;99.90
6788;DHT22;3431;47.966;10.268;2023-07-13T01:09:42;16.80;99.90
6788;DHT22;3431;47.966;10.268;2023-07-13T01:10:04;16.80;99.90
6788;DHT22;3431;47.966;10.268;2023-07-13T01:10:27;16.80;99.90
6788;DHT22;3431;47.966;10.268;2023-07-13T01:10:53;16.80;99.90
6788;DHT22;3431;47.966;10.268;2023-07-13T01:11:19;16.80;99.90
6788;DHT22;3431;47.966;10.268;2023-07-13T01:11:42;16.70;99.90
6788;DHT22;3431;47.966;10.268;2023-07-13T01:12:04;16.70;99.90
6788;DHT22;3431;47.966;10.268;2023-07-13T01:12:26;16.70;99.90
6788;DHT22;3431;47.966;10.268;2023-07-13T01:12:48;16.70;99.90
6788;DHT22;3431;47.966;10.268;2023-07-13T01:13:10;16.70;99.90
6788;DHT22;3431;47.966;10.268;2023-07-13T01:13:32;16.70;99.90
6788;DHT22;3431;47.966;10.268;2023-07-13T01:13:54;16.70;99.90
6788;DHT22;3431;47.966;10.268;2023-07-13T01:14:16;16.70;99.90
6788;DHT22;3431;47.966;10.268;2023-07-13T01:14:38;16.70;99.90
6788;DHT22;3431;47.966;10.268;2023-07-13T01:15:01;16.70;99.90
6788;DHT22;3431;47.966;10.268;2023-07-13T01:15:37;16.70;99.90
6788;DHT22;3431;47.966;10.268;2023-07-13T01:16:02;16.70;99.90
6788;DHT22;3431;47.966;10.268;2023-07-13T01:16:29;16.60;99.90
6788;DHT22;3431;47.966;10.268;2023-07-13T01:16:53;16.70;99.90
6788;DHT22;3431;47.966;10.268;2023-07-13T01:17:15;16.60;99.90
6788;DHT22;3431;47.966;10.268;2023-07-13T01:17:36;16.70;99.90
6788;DHT22;3431;47.966;10.268;2023-07-13T01:17:58;16.70;99.90
6788;DHT22;3431;47.966;10.268;2023-07-13T01:18:24;16.70;99.90
6788;DHT22;3431;47.966;10.268;2023-07-13T01:18:49;16.60;99.90
6788;DHT22;3431;47.966;10.268;2023-07-13T01:19:18;16.60;99.90
6788;DHT22;3431;47.966;10.268;2023-07-13T01:19:44;16.60;99.90
6788;DHT22;3431;47.966;10.268;2023-07-13T01:20:07;16.60;99.90
6788;DHT22;3431;47.966;10.268;2023-07-13T01:20:30;16.60;99.90
6788;DHT22;3431;47.966;10.268;2023-07-13T01:20:55;16.60;99.90
6788;DHT22;3431;47.966;10.268;2023-07-13T01:21:16;16.60;99.90
6788;DHT22;3431;47.966;10.268;2023-07-13T01:21:40;16.60;99.90
6788;DHT22;3431;47.966;10.268;2023-07-13T01:22:04;16.60;99.90
6788;DHT22;3431;47.966;10.268;2023-07-13T01:22:29;16.60;99.90
6788;DHT22;3431;47.966;10.268;2023-07-13T01:22:53;16.60;99.90
6788;DHT22;3431;47.966;10.268;2023-07-13T01:23:16;16.60;99.90
6788;DHT22;3431;47.966;10.268;2023-07-13T01:23:38;16.60;99.90
6788;DHT22;3431;47.966;10.268;2023-07-13T01:23:59;16.60;99.90
6788;DHT22;3431;47.966;10.268;2023-07-13T01:24:23;16.60;99.90
6788;DHT22;3431;47.966;10.268;2023-07-13T01:24:46;16.60;99.90
6788;DHT22;3431;47.966;10.268;2023-07-13T01:25:10;16.60;99.90
6788;DHT22;3431;47.966;10.268;2023-07-13T01:25:31;16.60;99.90
6788;DHT22;3431;47.966;10.268;2023-07-13T01:25:53;16.60;99.90
6788;DHT22;3431;47.966;10.268;2023-07-13T01:26:16;16.50;99.90
6788;DHT22;3431;47.966;10.268;2023-07-13T01:26:38;16.50;99.90
6788;DHT22;3431;47.966;10.268;2023-07-13T01:27:02;16.50;99.90
6788;DHT22;3431;47.966;10.268;2023-07-13T01:27:25;16.50;99.90
6788;DHT22;3431;47.966;10.268;2023-07-13T01:27:47;16.50;99.90
6788;DHT22;3431;47.966;10.268;2023-07-13T01:28:09;16.50;99.90
6788;DHT22;3431;47.966;10.268;2023-07-13T01:28:33;16.60;99.90
6788;DHT22;3431;47.966;10.268;2023-07-13T01:28:58;16.50;99.90
6788;DHT22;3431;47.966;10.268;2023-07-13T01:29:20;16.50;99.90
6788;DHT22;3431;47.966;10.268;2023-07-13T01:29:44;16.50;99.90
6788;DHT22;3431;47.966;10.268;2023-07-13T01:30:09;16.50;99.90
6788;DHT22;3431;47.966;10.268;2023-07-13T01:30:31;16.50;99.90
6788;DHT22;3431;47.966;10.268;2023-07-13T01:30:54;16.50;99.90
6788;DHT22;3431;47.966;10.268;2023-07-13T01:31:17;16.50;99.90
6788;DHT22;3431;47.966;10.268;2023-07-13T01:31:39;16.50;99.90
6788;DHT22;3431;47.966;10.268;2023-07-13T01:32:00;16.50;99.90
6788;DHT22;3431;47.966;10.268;2023-07-13T01:32:23;16.50;99.90
6788;DHT22;3431;47.966;10.268;2023-07-13T01:32:48;16.50;99.90
6788;DHT22;3431;47.966;10.268;2023-07-13T01:33:09;16.50;99.90
6788;DHT22;3431;47.966;10.268;2023-07-13T01:33:31;16.50;99.90
6788;DHT22;3431;47.966;10.268;2023-07-13T01:33:53;16.50;99.90
6788;DHT22;3431;47.966;10.268;2023-07-13T01:34:16;16.50;99.90
6788;DHT22;3431;47.966;10.268;2023-07-13T01:34:38;16.50;99.90
6788;DHT22;3431;47.966;10.268;2023-07-13T01:35:04;16.50;99.90
6788;DHT22;3431;47.966;10.268;2023-07-13T01:35:26;16.50;99.90
6788;DHT22;3431;47.966;10.268;2023-07-13T01:35:48;16.50;99.90
6788;DHT22;3431;47.966;10.268;2023-07-13T01:36:12;16.50;99.90
6788;DHT22;3431;47.966;10.268;2023-07-13T01:36:34;16.50;99.90
6788;DHT22;3431;47.966;10.268;2023-07-13T01:36:57;16.50;99.90
6788;DHT22;3431;47.966;10.268;2023-07-13T01:37:18;16.50;99.90
6788;DHT22;3431;47.966;10.268;2023-07-13T01:37:40;16.50;99.90
6788;DHT22;3431;47.966;10.268;2023-07-13T01:38:04;16.50;99.90
6788;DHT22;3431;47.966;10.268;2023-07-13T01:38:26;16.60;99.90
6788;DHT22;3431;47.966;10.268;2023-07-13T01:38:48;16.60;99.90
6788;DHT22;3431;47.966;10.268;2023-07-13T01:39:10;16.60;99.90
6788;DHT22;3431;47.966;10.268;2023-07-13T01:39:32;16.60;99.90
6788;DHT22;3431;47.966;10.268;2023-07-13T01:39:54;16.60;99.90
6788;DHT22;3431;47.966;10.268;2023-07-13T01:40:17;16.50;99.90
6788;DHT22;3431;47.966;10.268;2023-07-13T01:40:39;16.50;99.90
6788;DHT22;3431;47.966;10.268;2023-07-13T01:41:00;16.50;99.90
6788;DHT22;3431;47.966;10.268;2023-07-13T01:41:22;16.50;99.90
6788;DHT22;3431;47.966;10.268;2023-07-13T01:41:44;16.50;99.90
6788;DHT22;3431;47.966;10.268;2023-07-13T01:42:06;16.50;99.90
6788;DHT22;3431;47.966;10.268;2023-07-13T01:42:29;16.50;99.90
6788;DHT22;3431;47.966;10.268;2023-07-13T01:42:50;16.50;99.90
6788;DHT22;3431;47.966;10.268;2023-07-13T01:43:14;16.50;99.90
6788;DHT22;3431;47.966;10.268;2023-07-13T01:43:36;16.50;99.90
6788;DHT22;3431;47.966;10.268;2023-07-13T01:43:58;16.50;99.90
6788;DHT22;3431;47.966;10.268;2023-07-13T01:44:20;16.50;99.90
6788;DHT22;3431;47.966;10.268;2023-07-13T01:44:42;16.50;99.90
6788;DHT22;3431;47.966;10.268;2023-07-13T01:45:04;16.50;99.90
6788;DHT22;3431;47.966;10.268;2023-07-13T01:45:26;16.50;99.90
6788;DHT22;3431;47.966;10.268;2023-07-13T01:45:47;16.50;99.90
6788;DHT22;3431;47.966;10.268;2023-07-13T01:46:09;16.40;99.90
6788;DHT22;3431;47.966;10.268;2023-07-13T01:46:32;16.40;99.90
6788;DHT22;3431;47.966;10.268;2023-07-13T01:46:53;16.40;99.90
6788;DHT22;3431;47.966;10.268;2023-07-13T01:47:15;16.40;99.90
6788;DHT22;3431;47.966;10.268;2023-07-13T01:47:37;16.40;99.90
6788;DHT22;3431;47.966;10.268;2023-07-13T01:47:59;16.40;99.90
6788;DHT22;3431;47.966;10.268;2023-07-13T01:48:21;16.40;99.90
6788;DHT22;3431;47.966;10.268;2023-07-13T01:48:44;16.40;99.90
6788;DHT22;3431;47.966;10.268;2023-07-13T01:49:05;16.40;99.90
6788;DHT22;3431;47.966;10.268;2023-07-13T01:49:27;16.40;99.90
6788;DHT22;3431;47.966;10.268;2023-07-13T01:49:49;16.40;99.90
6788;DHT22;3431;47.966;10.268;2023-07-13T01:50:13;16.40;99.90
6788;DHT22;3431;47.966;10.268;2023-07-13T01:50:34;16.40;99.90
6788;DHT22;3431;47.966;10.268;2023-07-13T01:50:57;16.40;99.90
6788;DHT22;3431;47.966;10.268;2023-07-13T01:51:20;16.40;99.90
6788;DHT22;3431;47.966;10.268;2023-07-13T01:51:42;16.40;99.90
6788;DHT22;3431;47.966;10.268;2023-07-13T01:52:04;16.40;99.90
6788;DHT22;3431;47.966;10.268;2023-07-13T01:52:27;16.40;99.90
6788;DHT22;3431;47.966;10.268;2023-07-13T01:52:48;16.40;99.90
6788;DHT22;3431;47.966;10.268;2023-07-13T01:53:10;16.40;99.90
6788;DHT22;3431;47.966;10.268;2023-07-13T01:53:31;16.40;99.90
6788;DHT22;3431;47.966;10.268;2023-07-13T01:53:53;16.40;99.90
6788;DHT22;3431;47.966;10.268;2023-07-13T01:54:16;16.40;99.90
6788;DHT22;3431;47.966;10.268;2023-07-13T01:54:38;16.40;99.90
6788;DHT22;3431;47.966;10.268;2023-07-13T01:54:59;16.40;99.90
6788;DHT22;3431;47.966;10.268;2023-07-13T01:55:21;16.40;99.90
6788;DHT22;3431;47.966;10.268;2023-07-13T01:55:43;16.40;99.90
6788;DHT22;3431;47.966;10.268;2023-07-13T01:56:05;16.40;99.90
6788;DHT22;3431;47.966;10.268;2023-07-13T01:56:27;16.30;99.90
6788;DHT22;3431;47.966;10.268;2023-07-13T01:56:49;16.30;99.90
6788;DHT22;3431;47.966;10.268;2023-07-13T01:57:10;16.30;99.90
6788;DHT22;3431;47.966;10.268;2023-07-13T01:57:32;16.30;99.90
6788;DHT22;3431;47.966;10.268;2023-07-13T01:57:53;16.30;99.90
6788;DHT22;3431;47.966;10.268;2023-07-13T01:58:15;16.30;99.90
6788;DHT22;3431;47.966;10.268;2023-07-13T01:58:37;16.30;99.90
6788;DHT22;3431;47.966;10.268;2023-07-13T01:58:59;16.30;99.90
6788;DHT22;3431;47.966;10.268;2023-07-13T01:59:20;16.30;99.90
6788;DHT22;3431;47.966;10.268;2023-07-13T01:59:42;16.30;99.90
6788;DHT22;3431;47.966;10.268;2023-07-13T02:00:06;16.30;99.90
6788;DHT22;3431;47.966;10.268;2023-07-13T02:00:37;16.30;99.90
6788;DHT22;3431;47.966;10.268;2023-07-13T02:00:59;16.30;99.90
6788;DHT22;3431;47.966;10.268;2023-07-13T02:01:23;16.30;99.90
6788;DHT22;3431;47.966;10.268;2023-07-13T02:01:46;16.30;99.90
6788;DHT22;3431;47.966;10.268;2023-07-13T02:02:07;16.30;99.90
6788;DHT22;3431;47.966;10.268;2023-07-13T02:02:29;16.30;99.90
6788;DHT22;3431;47.966;10.268;2023-07-13T02:02:50;16.30;99.90
6788;DHT22;3431;47.966;10.268;2023-07-13T02:03:13;16.30;99.90
6788;DHT22;3431;47.966;10.268;2023-07-13T02:03:39;16.30;99.90
6788;DHT22;3431;47.966;10.268;2023-07-13T02:04:00;16.30;99.90
6788;DHT22;3431;47.966;10.268;2023-07-13T02:04:23;16.30;99.90
6788;DHT22;3431;47.966;10.268;2023-07-13T02:04:47;16.30;99.90
6788;DHT22;3431;47.966;10.268;2023-07-13T02:05:09;16.30;99.90
6788;DHT22;3431;47.966;10.268;2023-07-13T02:05:31;16.30;99.90
6788;DHT22;3431;47.966;10.268;2023-07-13T02:05:53;16.30;99.90
6788;DHT22;3431;47.966;10.268;2023-07-13T02:06:14;16.30;99.90
6788;DHT22;3431;47.966;10.268;2023-07-13T02:06:37;16.30;99.90
6788;DHT22;3431;47.966;10.268;2023-07-13T02:06:59;16.30;99.90
6788;DHT22;3431;47.966;10.268;2023-07-13T02:07:21;16.30;99.90
6788;DHT22;3431;47.966;10.268;2023-07-13T02:07:43;16.30;99.90
6788;DHT22;3431;47.966;10.268;2023-07-13T02:08:04;16.30;99.90
6788;DHT22;3431;47.966;10.268;2023-07-13T02:08:26;16.30;99.90
6788;DHT22;3431;47.966;10.268;2023-07-13T02:08:49;16.30;99.90
6788;DHT22;3431;47.966;10.268;2023-07-13T02:09:10;16.30;99.90
6788;DHT22;3431;47.966;10.268;2023-07-13T02:09:32;16.30;99.90
6788;DHT22;3431;47.966;10.268;2023-07-13T02:09:53;16.30;99.90
6788;DHT22;3431;47.966;10.268;2023-07-13T02:10:15;16.30;99.90
6788;DHT22;3431;47.966;10.268;2023-07-13T02:10:38;16.30;99.90
6788;DHT22;3431;47.966;10.268;2023-07-13T02:11:00;16.30;99.90
6788;DHT22;3431;47.966;10.268;2023-07-13T02:11:21;16.30;99.90
6788;DHT22;3431;47.966;10.268;2023-07-13T02:11:43;16.30;99.90
6788;DHT22;3431;47.966;10.268;2023-07-13T02:12:06;16.30;99.90
6788;DHT22;3431;47.966;10.268;2023-07-13T02:12:28;16.30;99.90
6788;DHT22;3431;47.966;10.268;2023-07-13T02:12:50;16.30;99.90
6788;DHT22;3431;47.966;10.268;2023-07-13T02:13:12;16.30;99.90
6788;DHT22;3431;47.966;10.268;2023-07-13T02:13:34;16.30;99.90
6788;DHT22;3431;47.966;10.268;2023-07-13T02:13:55;16.30;99.90
6788;DHT22;3431;47.966;10.268;2023-07-13T02:14:18;16.30;99.90
6788;DHT22;3431;47.966;10.268;2023-07-13T02:14:39;16.30;99.90
6788;DHT22;3431;47.966;10.268;2023-07-13T02:15:01;16.30;99.90
6788;DHT22;3431;47.966;10.268;2023-07-13T02:15:23;16.30;99.90
6788;DHT22;3431;47.966;10.268;2023-07-13T02:15:45;16.20;99.90
6788;DHT22;3431;47.966;10.268;2023-07-13T02:16:07;16.30;99.90
6788;DHT22;3431;47.966;10.268;2023-07-13T02:16:29;16.20;99.90
6788;DHT22;3431;47.966;10.268;2023-07-13T02:16:51;16.20;99.90
6788;DHT22;3431;47.966;10.268;2023-07-13T02:17:12;16.20;99.90
6788;DHT22;3431;47.966;10.268;2023-07-13T02:17:35;16.20;99.90
6788;DHT22;3431;47.966;10.268;2023-07-13T02:17:58;16.20;99.90
6788;DHT22;3431;47.966;10.268;2023-07-13T02:18:20;16.20;99.90
6788;DHT22;3431;47.966;10.268;2023-07-13T02:18:42;16.20;99.90
6788;DHT22;3431;47.966;10.268;2023-07-13T02:19:03;16.20;99.90
6788;DHT22;3431;47.966;10.268;2023-07-13T02:19:25;16.20;99.90
6788;DHT22;3431;47.966;10.268;2023-07-13T02:19:46;16.20;99.90
6788;DHT22;3431;47.966;10.268;2023-07-13T02:20:09;16.20;99.90
6788;DHT22;3431;47.966;10.268;2023-07-13T02:20:31;16.20;99.90
6788;DHT22;3431;47.966;10.268;2023-07-13T02:20:52;16.20;99.90
6788;DHT22;3431;47.966;10.268;2023-07-13T02:21:14;16.20;99.90
6788;DHT22;3431;47.966;10.268;2023-07-13T02:21:37;16.20;99.90
6788;DHT22;3431;47.966;10.268;2023-07-13T02:21:59;16.20;99.90
6788;DHT22;3431;47.966;10.268;2023-07-13T02:22:21;16.20;99.90
6788;DHT22;3431;47.966;10.268;2023-07-13T02:22:43;16.20;99.90
6788;DHT22;3431;47.966;10.268;2023-07-13T02:23:04;16.20;99.90
6788;DHT22;3431;47.966;10.268;2023-07-13T02:23:26;16.20;99.90
6788;DHT22;3431;47.966;10.268;2023-07-13T02:23:49;16.20;99.90
6788;DHT22;3431;47.966;10.268;2023-07-13T02:24:11;16.20;99.90
6788;DHT22;3431;47.966;10.268;2023-07-13T02:24:38;16.20;99.90
6788;DHT22;3431;47.966;10.268;2023-07-13T02:25:00;16.20;99.90
6788;DHT22;3431;47.966;10.268;2023-07-13T02:25:21;16.20;99.90
6788;DHT22;3431;47.966;10.268;2023-07-13T02:25:44;16.20;99.90
6788;DHT22;3431;47.966;10.268;2023-07-13T02:26:06;16.20;99.90
6788;DHT22;3431;47.966;10.268;2023-07-13T02:26:28;16.20;99.90
6788;DHT22;3431;47.966;10.268;2023-07-13T02:26:49;16.20;99.90
6788;DHT22;3431;47.966;10.268;2023-07-13T02:27:11;16.20;99.90
6788;DHT22;3431;47.966;10.268;2023-07-13T02:27:32;16.30;99.90
6788;DHT22;3431;47.966;10.268;2023-07-13T02:27:55;16.30;99.90
6788;DHT22;3431;47.966;10.268;2023-07-13T02:28:16;16.30;99.90
6788;DHT22;3431;47.966;10.268;2023-07-13T02:28:38;16.30;99.90
6788;DHT22;3431;47.966;10.268;2023-07-13T02:29:00;16.30;99.90
6788;DHT22;3431;47.966;10.268;2023-07-13T02:29:21;16.30;99.90
6788;DHT22;3431;47.966;10.268;2023-07-13T02:29:43;16.30;99.90
6788;DHT22;3431;47.966;10.268;2023-07-13T02:30:06;16.40;99.90
6788;DHT22;3431;47.966;10.268;2023-07-13T02:30:28;16.40;99.90
6788;DHT22;3431;47.966;10.268;2023-07-13T02:30:51;16.40;99.90
6788;DHT22;3431;47.966;10.268;2023-07-13T02:31:14;16.50;99.90
6788;DHT22;3431;47.966;10.268;2023-07-13T02:31:36;16.40;99.90
6788;DHT22;3431;47.966;10.268;2023-07-13T02:31:58;16.50;99.90
6788;DHT22;3431;47.966;10.268;2023-07-13T02:32:20;16.50;99.90
6788;DHT22;3431;47.966;10.268;2023-07-13T02:32:41;16.50;99.90
6788;DHT22;3431;47.966;10.268;2023-07-13T02:33:04;16.50;99.90
6788;DHT22;3431;47.966;10.268;2023-07-13T02:33:26;16.60;99.90
6788;DHT22;3431;47.966;10.268;2023-07-13T02:33:49;16.60;99.90
6788;DHT22;3431;47.966;10.268;2023-07-13T02:34:10;16.60;99.90
6788;DHT22;3431;47.966;10.268;2023-07-13T02:34:32;16.60;99.90
6788;DHT22;3431;47.966;10.268;2023-07-13T02:34:53;16.70;99.90
6788;DHT22;3431;47.966;10.268;2023-07-13T02:35:15;16.70;99.90
6788;DHT22;3431;47.966;10.268;2023-07-13T02:35:36;16.70;99.90
6788;DHT22;3431;47.966;10.268;2023-07-13T02:35:59;16.80;99.90
6788;DHT22;3431;47.966;10.268;2023-07-13T02:36:21;16.80;99.90
6788;DHT22;3431;47.966;10.268;2023-07-13T02:36:44;16.80;99.90
6788;DHT22;3431;47.966;10.268;2023-07-13T02:37:05;16.80;99.90
6788;DHT22;3431;47.966;10.268;2023-07-13T02:37:27;16.80;99.90